Time;durP1;ratioP1;P1;durP2;ratioP2;P2;SDS_P1;SDS_P2;PMS_P1;PMS_P2;Temp;Humidity;BMP_temperature;BMP_pressure;BME280_temperature;BME280_humidity;BME280_pressure;Samples;Min_cycle;Max_cycle;Signal;HPM_P1;HPM_P2
2021/04/29 00:00:40;;;;;;;15.40;6.99;;;;;;;10.34;38.63;99506.80;358345;113;1961933;-73
2021/04/29 00:01:47;;;;;;;15.62;6.78;;;;;;;10.31;38.83;99510.75;350035;114;1961953;-73
2021/04/29 00:02:53;;;;;;;19.61;7.01;;;;;;;10.29;38.73;99507.45;339055;113;1961019;-73
2021/04/29 00:03:59;;;;;;;23.36;9.17;;;;;;;10.26;38.83;99507.80;356670;113;1963996;-72
2021/04/29 00:05:07;;;;;;;14.75;6.86;;;;;;;10.22;39.82;99511.15;355390;113;1961931;-72
2021/04/29 00:06:13;;;;;;;13.32;6.73;;;;;;;10.20;39.13;99513.22;334982;111;1961948;-71
2021/04/29 00:07:18;;;;;;;13.61;6.67;;;;;;;10.18;39.74;99508.02;354612;113;1961894;-73
2021/04/29 00:08:24;;;;;;;13.89;7.03;;;;;;;10.15;39.18;99511.13;356332;113;1963974;-72
2021/04/29 00:09:32;;;;;;;11.60;6.36;;;;;;;10.15;39.30;99511.13;353099;115;1961902;-72
2021/04/29 00:10:39;;;;;;;12.07;6.36;;;;;;;10.15;39.30;99504.91;355234;111;1960875;-72
2021/04/29 00:11:44;;;;;;;14.97;7.24;;;;;;;10.13;39.31;99515.90;355631;113;1962033;-72
2021/04/29 00:12:49;;;;;;;13.13;7.26;;;;;;;10.11;39.31;99508.03;356566;113;1961934;-72
2021/04/29 00:13:55;;;;;;;11.08;6.22;;;;;;;10.10;39.34;99511.74;355530;111;1964961;-72
2021/04/29 00:15:00;;;;;;;17.49;7.21;;;;;;;10.10;39.43;99502.83;355416;111;1962056;-72
2021/04/29 00:16:06;;;;;;;12.98;6.43;;;;;;;10.08;39.52;99505.75;355025;114;1961949;-72
2021/04/29 00:17:12;;;;;;;13.49;7.45;;;;;;;10.09;39.63;99504.70;294390;113;2180905;-72
2021/04/29 00:18:19;;;;;;;13.07;6.03;;;;;;;10.10;39.67;99509.05;356160;113;1961961;-73
2021/04/29 00:19:26;;;;;;;16.76;7.33;;;;;;;10.10;39.65;99503.64;355068;113;1961969;-72
2021/04/29 00:20:33;;;;;;;18.66;7.21;;;;;;;10.13;39.71;99507.80;359086;111;1962936;-73
2021/04/29 00:21:38;;;;;;;13.77;7.35;;;;;;;10.12;39.71;99512.38;358567;113;1961981;-72
2021/04/29 00:22:44;;;;;;;13.48;7.78;;;;;;;10.13;39.68;99505.96;361591;111;1964296;-72
2021/04/29 00:23:49;;;;;;;14.39;7.02;;;;;;;10.13;39.85;99507.80;361739;111;1963927;-72
2021/04/29 00:24:55;;;;;;;13.71;8.01;;;;;;;10.10;39.73;99502.83;357249;110;1960799;-73
2021/04/29 00:26:01;;;;;;;14.96;7.28;;;;;;;10.08;39.78;99500.34;353334;113;1961956;-72
2021/04/29 00:27:06;;;;;;;15.12;7.77;;;;;;;10.07;39.82;99503.23;351937;115;1962930;-72
2021/04/29 00:28:12;;;;;;;15.12;8.69;;;;;;;10.06;40.14;99509.69;327867;114;2458970;-73
2021/04/29 00:29:17;;;;;;;18.06;9.16;;;;;;;10.05;39.95;99502.61;328829;114;1961950;-72
2021/04/29 00:30:23;;;;;;;17.33;9.39;;;;;;;10.03;40.16;99502.83;350440;114;1964287;-72
2021/04/29 00:31:30;;;;;;;14.96;9.32;;;;;;;10.01;40.13;99499.50;351675;114;1962043;-73
2021/04/29 00:32:36;;;;;;;14.07;8.92;;;;;;;10.00;40.23;99503.25;352309;114;1964055;-72
2021/04/29 00:33:42;;;;;;;14.21;8.52;;;;;;;9.98;40.32;99502.62;300886;115;2238925;-73
2021/04/29 00:34:47;;;;;;;14.32;8.30;;;;;;;9.97;40.53;99500.11;336923;114;1961957;-72
2021/04/29 00:35:52;;;;;;;14.36;9.24;;;;;;;9.95;40.35;99504.87;342145;115;1961950;-72
2021/04/29 00:36:58;;;;;;;14.35;8.33;;;;;;;9.93;40.72;99497.00;350824;113;1961959;-72
2021/04/29 00:38:03;;;;;;;19.03;8.19;;;;;;;9.94;40.48;99506.75;350445;114;1963909;-72
2021/04/29 00:39:09;;;;;;;13.74;7.69;;;;;;;9.95;40.64;99504.87;347370;113;1961913;-72
2021/04/29 00:40:15;;;;;;;14.67;8.23;;;;;;;9.92;40.57;99498.02;355826;113;1963925;-73
2021/04/29 00:41:23;;;;;;;14.04;8.37;;;;;;;9.90;40.61;99505.52;310483;114;2685987;-72
2021/04/29 00:42:28;;;;;;;15.57;8.07;;;;;;;9.88;40.81;99497.61;344556;116;1961789;-72
2021/04/29 00:43:33;;;;;;;14.42;8.16;;;;;;;9.87;40.77;99500.50;343151;114;1961971;-72
2021/04/29 00:44:39;;;;;;;11.67;7.09;;;;;;;9.88;40.91;99500.31;350355;115;1961865;-73
2021/04/29 00:45:45;;;;;;;17.99;8.16;;;;;;;9.88;40.87;99499.48;350157;114;1962001;-72
2021/04/29 00:46:52;;;;;;;13.01;6.58;;;;;;;9.85;41.08;99499.91;315814;113;2634923;-72
2021/04/29 00:47:58;;;;;;;17.04;6.78;;;;;;;9.86;40.99;99502.38;349047;113;1962021;-72
2021/04/29 00:49:16;;;;;;;13.71;7.02;;;;;;;9.85;40.94;99499.91;352572;112;1963035;-72
2021/04/29 00:50:25;;;;;;;14.78;7.57;;;;;;;9.85;41.15;99502.60;333113;112;1962012;-73
2021/04/29 00:51:30;;;;;;;11.97;7.23;;;;;;;9.84;41.02;99496.38;347972;114;1960979;-73
2021/04/29 00:52:37;;;;;;;15.83;7.56;;;;;;;9.83;41.06;99497.40;339821;115;2902953;-73
2021/04/29 00:53:44;;;;;;;14.76;7.14;;;;;;;9.82;41.26;99500.32;341033;117;1960968;-74
2021/04/29 00:54:51;;;;;;;13.83;7.44;;;;;;;9.81;41.08;99499.47;347625;117;1961929;-72
2021/04/29 00:55:56;;;;;;;17.37;7.36;;;;;;;9.81;41.15;99493.24;327870;117;2304021;-72
2021/04/29 00:57:01;;;;;;;15.64;8.43;;;;;;;9.79;41.42;99496.16;319502;115;1962048;-73
2021/04/29 00:58:07;;;;;;;15.65;7.77;;;;;;;9.77;41.44;99498.23;333936;110;1960863;-73
2021/04/29 00:59:12;;;;;;;14.11;8.08;;;;;;;9.75;41.42;99500.30;355301;111;1962041;-73
2021/04/29 01:00:31;;;;;;;13.86;7.09;;;;;;;9.76;41.37;99504.64;357643;113;1964987;-72
2021/04/29 01:01:51;;;;;;;13.92;7.84;;;;;;;9.73;41.51;99494.27;336671;110;1961966;-72
2021/04/29 01:03:06;;;;;;;13.59;7.15;;;;;;;9.71;41.44;99493.63;326529;112;1961951;-72
2021/04/29 01:04:27;;;;;;;15.86;7.33;;;;;;;9.71;41.77;99495.50;289989;113;2231796;-72
2021/04/29 01:05:51;;;;;;;16.99;7.59;;;;;;;9.68;41.67;99496.73;350452;113;1963974;-73
2021/04/29 01:07:03;;;;;;;12.63;7.08;;;;;;;9.64;41.67;99493.63;332684;110;1964329;-71
2021/04/29 01:08:13;;;;;;;;;;;;;;;9.64;42.11;99498.20;342944;117;1960980;-72
2021/04/29 01:09:31;;;;;;;18.99;9.12;;;;;;;9.63;42.06;99496.52;335383;121;1960977;-73
2021/04/29 01:10:42;;;;;;;13.73;7.69;;;;;;;9.63;41.78;99494.68;336359;117;1961936;-72
2021/04/29 01:11:51;;;;;;;11.98;6.67;;;;;;;9.62;41.61;99495.70;343356;117;1962979;-72
2021/04/29 01:13:12;;;;;;;16.66;7.64;;;;;;;9.62;41.87;99490.30;351148;114;1961129;-72
2021/04/29 01:14:18;;;;;;;16.01;6.58;;;;;;;9.07;41.76;99408.66;353969;115;1961992;-73
2021/04/29 01:15:26;;;;;;;11.36;6.79;;;;;;;9.58;41.92;99498.99;353562;114;1961982;-72
2021/04/29 01:16:34;;;;;;;12.59;6.89;;;;;;;9.57;42.02;99500.05;354133;113;1961906;-72
2021/04/29 01:17:43;;;;;;;13.26;6.98;;;;;;;9.54;42.08;99495.06;311089;115;2754937;-72
2021/04/29 01:18:55;;;;;;;13.26;6.58;;;;;;;9.52;42.16;99492.55;354021;114;1962027;-73
2021/04/29 01:20:05;;;;;;;;;;;;;;;9.52;42.12;99495.25;336354;112;1963892;-72
2021/04/29 01:21:14;;;;;;;12.73;6.66;;;;;;;9.52;42.31;99494.42;334177;112;1961974;-72
2021/04/29 01:22:20;;;;;;;16.34;7.13;;;;;;;9.53;42.33;99486.14;330683;112;2332969;-72
2021/04/29 01:23:56;;;;;;;20.39;7.06;;;;;;;9.51;42.24;99490.91;329672;115;1961972;-72
2021/04/29 01:25:09;;;;;;;14.42;6.94;;;;;;;9.51;42.49;99495.47;347794;117;1964213;-72
2021/04/29 01:26:40;;;;;;;13.59;6.92;;;;;;;9.49;42.32;99487.57;340111;113;1963960;-72
2021/04/29 01:27:45;;;;;;;15.76;7.23;;;;;;;9.51;42.33;99495.47;291795;114;2210985;-72
2021/04/29 01:28:53;;;;;;;16.57;7.31;;;;;;;9.49;42.43;99501.05;350109;114;1962057;-71
2021/04/29 01:30:01;;;;;;;15.66;7.92;;;;;;;9.45;42.99;99495.25;343223;114;1964458;-72
2021/04/29 01:31:09;;;;;;;13.59;6.72;;;;;;;9.44;42.61;99495.44;343638;114;1961925;-73
2021/04/29 01:32:16;;;;;;;10.84;6.56;;;;;;;9.42;42.71;99498.35;328226;113;2336036;-72
2021/04/29 01:33:22;;;;;;;13.68;6.63;;;;;;;9.40;42.71;99489.63;352884;115;1962972;-72
2021/04/29 01:34:32;;;;;;;13.61;7.73;;;;;;;9.39;42.72;99490.67;354295;114;1961921;-72
2021/04/29 01:35:39;;;;;;;14.79;6.81;;;;;;;9.37;42.93;99497.30;352178;114;1961959;-72
2021/04/29 01:36:47;;;;;;;12.98;6.76;;;;;;;9.34;42.93;99494.98;311834;114;1980223;-73
2021/04/29 01:37:55;;;;;;;12.37;7.88;;;;;;;9.30;43.03;99491.88;350850;115;1962973;-72
2021/04/29 01:39:03;;;;;;;14.17;7.48;;;;;;;9.27;43.17;99494.98;352557;114;1961031;-73
2021/04/29 01:40:11;;;;;;;13.81;7.26;;;;;;;9.25;43.24;99497.03;319707;114;1961918;-71
2021/04/29 01:41:17;;;;;;;13.52;7.06;;;;;;;9.23;43.72;99493.70;351200;115;1962070;-72
2021/04/29 01:42:23;;;;;;;13.86;8.14;;;;;;;9.21;43.42;99487.70;353193;114;1960768;-72
2021/04/29 01:43:30;;;;;;;19.02;9.01;;;;;;;9.20;43.47;99491.41;328798;115;2386935;-73
2021/04/29 01:44:37;;;;;;;14.24;8.94;;;;;;;9.19;43.55;99487.06;353123;114;1962005;-72
2021/04/29 01:45:43;;;;;;;15.59;8.94;;;;;;;9.17;43.30;99492.65;352471;114;1964005;-72
2021/04/29 01:46:49;;;;;;;14.66;8.93;;;;;;;9.16;43.46;99488.30;321632;115;2480963;-73
2021/04/29 01:47:56;;;;;;;15.41;9.21;;;;;;;9.14;43.69;99490.36;350360;115;1961935;-72
2021/04/29 01:49:04;;;;;;;15.71;9.12;;;;;;;9.14;43.77;99493.05;348519;116;1963899;-72
2021/04/29 01:50:11;;;;;;;15.33;8.96;;;;;;;9.13;43.83;99493.23;352191;114;1962981;-72
2021/04/29 01:51:20;;;;;;;14.87;10.04;;;;;;;9.11;43.76;99492.64;361678;109;1960844;-72
2021/04/29 01:52:25;;;;;;;15.73;9.57;;;;;;;9.11;43.75;99487.25;367438;110;1963016;-73
2021/04/29 01:53:30;;;;;;;13.14;8.64;;;;;;;9.09;43.75;99492.00;367902;110;1961972;-74
2021/04/29 01:54:39;;;;;;;15.27;9.68;;;;;;;9.09;43.86;99489.30;367429;109;1961953;-73
2021/04/29 01:55:45;;;;;;;15.12;10.09;;;;;;;9.11;43.82;99492.64;350597;113;1961941;-72
2021/04/29 01:56:51;;;;;;;17.37;10.28;;;;;;;9.13;43.79;99498.63;355552;113;1961986;-72
2021/04/29 01:57:57;;;;;;;12.66;8.97;;;;;;;9.11;43.82;99495.33;356187;113;1960748;-72
2021/04/29 01:59:05;;;;;;;17.77;10.12;;;;;;;9.06;44.04;99495.09;310174;115;2785750;-72
2021/04/29 02:00:13;;;;;;;14.96;9.18;;;;;;;9.04;44.08;99497.98;356542;113;1960753;-72
2021/04/29 02:01:22;;;;;;;15.87;8.48;;;;;;;9.05;44.08;99498.80;325803;113;1960853;-72
2021/04/29 02:02:28;;;;;;;14.13;8.38;;;;;;;8.97;44.07;99484.49;317733;111;2775977;-72
2021/04/29 02:03:33;;;;;;;16.41;8.86;;;;;;;9.02;44.20;99497.34;362377;111;1960887;-72
2021/04/29 02:04:39;;;;;;;15.29;8.54;;;;;;;9.00;44.27;99496.73;361061;111;1961919;-72
2021/04/29 02:05:44;;;;;;;15.09;8.17;;;;;;;9.03;44.25;99504.41;358100;113;1963999;-72
2021/04/29 02:06:50;;;;;;;14.91;9.55;;;;;;;9.02;44.06;99495.50;360199;111;1961999;-72
2021/04/29 02:07:57;;;;;;;13.47;8.72;;;;;;;9.01;44.24;99493.82;360131;111;1961863;-72
2021/04/29 02:09:05;;;;;;;14.16;8.13;;;;;;;9.02;44.12;99498.20;337298;111;2352018;-73
2021/04/29 02:10:14;;;;;;;13.87;8.67;;;;;;;9.00;44.32;99496.73;364861;111;1961967;-72
2021/04/29 02:11:20;;;;;;;15.76;8.36;;;;;;;9.06;44.18;99495.09;360111;111;1961839;-72
2021/04/29 02:12:27;;;;;;;12.23;8.18;;;;;;;9.06;44.17;99500.48;361278;111;1962966;-72
2021/04/29 02:13:35;;;;;;;14.23;8.21;;;;;;;9.07;44.16;99496.75;316441;111;2041991;-72
2021/04/29 02:14:55;;;;;;;13.31;7.51;;;;;;;9.08;44.25;99490.34;360415;112;1961974;-72
2021/04/29 02:16:07;;;;;;;13.16;8.32;;;;;;;9.08;44.34;99496.56;360718;112;1962938;-73
2021/04/29 02:17:25;;;;;;;12.24;8.18;;;;;;;9.09;44.34;99497.38;348487;112;1963033;-73
2021/04/29 02:18:33;;;;;;;16.27;8.60;;;;;;;9.09;44.17;99489.30;360294;111;1961997;-74
2021/04/29 02:19:41;;;;;;;13.89;8.87;;;;;;;9.09;44.45;99495.52;360736;111;1963936;-72
2021/04/29 02:20:49;;;;;;;19.07;11.32;;;;;;;9.07;44.33;99489.49;338212;111;1961969;-73
2021/04/29 02:21:57;;;;;;;18.77;11.68;;;;;;;9.08;44.53;99493.05;362707;111;1964017;-72
2021/04/29 02:23:09;;;;;;;21.52;11.78;;;;;;;9.05;44.47;99493.41;361138;111;1961966;-71
2021/04/29 02:24:17;;;;;;;22.52;13.74;;;;;;;9.03;44.47;99501.72;361974;111;1961971;-71
2021/04/29 02:25:26;;;;;;;20.14;12.97;;;;;;;9.03;44.55;99499.84;365356;111;1962024;-72
2021/04/29 02:26:34;;;;;;;22.96;13.50;;;;;;;9.03;44.42;99496.33;361721;110;1962128;-71
2021/04/29 02:27:41;;;;;;;19.89;12.38;;;;;;;9.00;44.58;99491.34;362430;112;1962015;-72
2021/04/29 02:28:48;;;;;;;22.21;14.28;;;;;;;8.99;44.61;99498.57;311952;111;2099411;-72
2021/04/29 02:29:54;;;;;;;20.92;12.82;;;;;;;8.98;44.66;99498.79;365435;111;1962028;-72
2021/04/29 02:31:04;;;;;;;21.65;13.80;;;;;;;8.94;44.69;99501.03;361863;111;1961915;-72
2021/04/29 02:32:20;;;;;;;22.43;13.53;;;;;;;8.95;44.78;99501.88;360192;113;1963951;-72
2021/04/29 02:33:26;;;;;;;21.21;12.86;;;;;;;8.95;44.77;99496.50;312339;111;2840912;-74
2021/04/29 02:34:32;;;;;;;20.13;13.41;;;;;;;8.94;44.98;99508.28;352135;111;1962998;-72
2021/04/29 02:35:37;;;;;;;21.11;12.89;;;;;;;8.92;44.93;99504.98;361075;111;1963975;-72
2021/04/29 02:36:46;;;;;;;22.06;12.83;;;;;;;8.91;44.96;99497.91;362213;111;1963838;-72
2021/04/29 02:37:53;;;;;;;17.83;11.46;;;;;;;8.90;45.20;99507.86;332976;111;1964321;-72
2021/04/29 02:38:59;;;;;;;17.87;12.25;;;;;;;8.90;45.10;99502.47;360160;111;1963927;-73
2021/04/29 02:40:12;;;;;;;18.44;11.19;;;;;;;8.89;45.04;99503.52;328313;111;2527967;-72
2021/04/29 02:41:16;;;;;;;21.93;10.29;;;;;;;8.87;45.25;99505.57;362660;110;1961878;-72
2021/04/29 02:42:22;;;;;;;19.22;11.06;;;;;;;8.86;45.12;99503.89;361995;111;1962038;-72
2021/04/29 02:43:28;;;;;;;16.39;10.72;;;;;;;8.87;45.20;99507.44;360274;111;1961936;-73
2021/04/29 02:44:35;;;;;;;17.89;10.23;;;;;;;8.87;45.16;99502.88;360529;111;1962014;-73
2021/04/29 02:45:46;;;;;;;18.34;10.03;;;;;;;8.87;45.60;99504.75;334754;111;1961975;-72
2021/04/29 02:46:51;;;;;;;18.76;10.87;;;;;;;8.89;45.26;99508.05;350093;111;1963889;-73
2021/04/29 02:47:57;;;;;;;20.02;11.74;;;;;;;8.88;45.33;99503.70;360654;111;1961939;-72
2021/04/29 02:49:03;;;;;;;19.28;10.71;;;;;;;8.86;45.46;99506.58;360608;111;1961838;-72
2021/04/29 02:50:11;;;;;;;17.66;10.11;;;;;;;8.88;45.52;99503.70;360098;111;1963695;-73
2021/04/29 02:51:17;;;;;;;17.83;11.47;;;;;;;8.91;45.49;99508.69;360564;110;1962009;-72
2021/04/29 02:52:23;;;;;;;19.56;11.40;;;;;;;8.94;45.40;99510.98;361160;110;1961974;-73
2021/04/29 02:53:42;;;;;;;18.29;11.46;;;;;;;8.93;45.25;99510.16;360647;111;1961965;-72
2021/04/29 02:54:48;;;;;;;14.07;8.35;;;;;;;8.95;45.34;99516.18;363560;111;1961958;-73
2021/04/29 02:55:54;;;;;;;18.26;9.32;;;;;;;8.96;45.43;99508.92;358378;111;1963126;-72
2021/04/29 02:57:00;;;;;;;15.43;9.63;;;;;;;8.96;45.40;99511.62;337505;113;2262812;-73
2021/04/29 02:58:07;;;;;;;15.53;9.52;;;;;;;8.97;45.21;99513.27;337362;113;1960951;-72
2021/04/29 02:59:12;;;;;;;16.32;9.46;;;;;;;8.98;45.33;99506.88;358127;113;1963973;-72
2021/04/29 03:00:19;;;;;;;16.51;9.65;;;;;;;9.00;45.29;99504.81;358140;111;1961963;-73
2021/04/29 03:01:25;;;;;;;15.71;8.84;;;;;;;9.02;45.31;99510.81;322107;113;2599905;-72
2021/04/29 03:02:30;;;;;;;19.45;9.11;;;;;;;9.03;45.24;99512.49;349829;113;1962909;-72
2021/04/29 03:03:35;;;;;;;18.24;9.67;;;;;;;9.02;45.31;99506.28;356142;113;1961945;-72
2021/04/29 03:04:41;;;;;;;14.13;9.24;;;;;;;9.04;45.32;99506.06;354956;113;1962001;-73
2021/04/29 03:05:48;;;;;;;15.87;9.44;;;;;;;9.02;45.32;99506.28;353656;113;1961934;-72
2021/04/29 03:06:54;;;;;;;16.59;10.03;;;;;;;9.00;45.40;99508.34;313411;113;2749971;-72
2021/04/29 03:07:59;;;;;;;18.24;10.32;;;;;;;9.03;45.33;99509.80;337496;113;1962011;-73
2021/04/29 03:09:06;;;;;;;18.36;10.02;;;;;;;9.03;45.34;99513.31;352142;115;1961947;-72
2021/04/29 03:10:13;;;;;;;15.89;9.28;;;;;;;9.02;45.40;99506.28;355054;113;1961987;-73
2021/04/29 03:11:19;;;;;;;20.83;10.33;;;;;;;9.03;45.40;99505.23;314547;113;2717917;-71
2021/04/29 03:12:24;;;;;;;21.59;9.07;;;;;;;9.05;45.36;99507.74;331929;113;1962040;-72
2021/04/29 03:13:30;;;;;;;18.42;10.88;;;;;;;9.05;45.48;99506.89;358222;113;1961983;-73
2021/04/29 03:14:35;;;;;;;15.87;9.96;;;;;;;9.05;45.48;99504.19;352894;113;1962985;-73
2021/04/29 03:15:50;;;;;;;15.08;9.47;;;;;;;9.06;45.37;99506.70;357015;113;1962989;-72
2021/04/29 03:16:55;;;;;;;17.24;9.79;;;;;;;9.06;45.41;99500.48;350961;115;1961919;-72
2021/04/29 03:18:11;;;;;;;22.80;9.66;;;;;;;9.03;45.72;99507.93;347222;117;1961981;-72
2021/04/29 03:19:18;;;;;;;22.40;9.73;;;;;;;9.05;45.57;99509.58;320444;113;2562902;-72
2021/04/29 03:20:24;;;;;;;14.86;9.06;;;;;;;9.03;45.59;99504.41;343005;115;1962002;-72
2021/04/29 03:21:29;;;;;;;15.80;9.18;;;;;;;9.05;45.61;99504.19;340803;119;1961936;-72
2021/04/29 03:22:35;;;;;;;18.76;9.37;;;;;;;9.07;45.68;99502.14;346120;117;1961954;-72
2021/04/29 03:23:41;;;;;;;18.16;10.19;;;;;;;9.08;45.63;99510.03;344569;110;1961986;-72
2021/04/29 03:24:49;;;;;;;16.66;9.46;;;;;;;9.08;45.53;99507.34;349130;114;1961992;-72
2021/04/29 03:25:58;;;;;;;15.93;8.89;;;;;;;9.09;45.61;99502.77;347192;114;1961956;-74
2021/04/29 03:27:04;;;;;;;17.27;9.99;;;;;;;9.08;45.66;99507.34;329408;116;1962957;-73
2021/04/29 03:28:09;;;;;;;16.94;10.01;;;;;;;9.09;45.63;99510.86;353303;114;1963917;-73
2021/04/29 03:29:14;;;;;;;18.33;9.85;;;;;;;9.11;45.61;99508.80;348097;114;1961906;-72
2021/04/29 03:30:22;;;;;;;20.26;9.80;;;;;;;9.12;45.58;99516.67;348012;116;1961997;-72
2021/04/29 03:31:28;;;;;;;20.38;10.71;;;;;;;9.14;45.56;99511.09;300627;116;2238970;-73
2021/04/29 03:32:33;;;;;;;20.52;10.13;;;;;;;9.16;45.48;99511.73;341056;114;1961978;-73
2021/04/29 03:33:39;;;;;;;20.34;10.34;;;;;;;9.16;45.68;99509.03;343809;118;1965060;-72
2021/04/29 03:34:45;;;;;;;18.98;9.40;;;;;;;9.17;45.66;99505.30;349761;114;1962085;-72
2021/04/29 03:35:50;;;;;;;18.64;10.09;;;;;;;9.20;45.55;99515.67;350008;114;1963744;-73
2021/04/29 03:36:56;;;;;;;16.98;9.28;;;;;;;9.22;45.64;99519.00;349748;114;1961955;-72
2021/04/29 03:38:03;;;;;;;15.86;9.71;;;;;;;9.38;45.27;99517.83;322547;114;2451895;-73
2021/04/29 03:39:08;;;;;;;16.48;9.61;;;;;;;9.43;45.21;99507.27;344751;116;1961981;-72
2021/04/29 03:40:15;;;;;;;19.23;9.67;;;;;;;9.53;45.05;99514.98;343881;118;1962971;-72
2021/04/29 03:41:21;;;;;;;21.53;10.13;;;;;;;9.59;45.04;99511.46;343752;118;1965024;-72
2021/04/29 03:42:27;;;;;;;26.64;11.77;;;;;;;9.58;44.96;99509.78;328413;114;2294735;-73
2021/04/29 03:43:32;;;;;;;26.37;12.90;;;;;;;9.47;45.11;99513.90;332509;114;1962991;-73
2021/04/29 03:44:39;;;;;;;23.69;12.77;;;;;;;9.45;45.20;99510.60;349369;114;1961950;-73
2021/04/29 03:45:46;;;;;;;29.97;12.78;;;;;;;9.46;45.27;99512.25;347711;114;1961941;-73
2021/04/29 03:46:52;;;;;;;27.83;12.11;;;;;;;9.49;45.23;99511.84;322035;114;2417972;-73
2021/04/29 03:48:07;;;;;;;21.10;10.40;;;;;;;9.50;45.22;99513.52;346369;114;1962240;-73
2021/04/29 03:49:12;;;;;;;19.61;10.66;;;;;;;9.54;45.25;99520.16;318960;120;1964963;-72
2021/04/29 03:50:19;;;;;;;18.11;9.48;;;;;;;9.59;45.32;99517.69;324026;124;1962035;-73
2021/04/29 03:51:25;;;;;;;19.21;9.75;;;;;;;9.62;45.12;99514.58;311597;128;1962607;-73
2021/04/29 03:52:32;;;;;;;16.64;9.31;;;;;;;9.65;45.06;99513.34;290830;127;2525951;-73
2021/04/29 03:53:37;;;;;;;14.78;9.24;;;;;;;9.72;44.96;99513.37;315797;128;1963044;-73
2021/04/29 03:54:43;;;;;;;13.09;8.17;;;;;;;9.75;44.99;99515.66;319711;127;1962021;-72
2021/04/29 03:55:48;;;;;;;16.55;9.16;;;;;;;9.81;44.88;99504.03;314538;128;1963029;-73
2021/04/29 03:56:55;;;;;;;15.57;8.67;;;;;;;9.85;44.86;99516.09;324039;123;1961942;-73
2021/04/29 03:58:00;;;;;;;18.89;9.94;;;;;;;9.92;44.69;99511.52;323586;125;1963029;-73
2021/04/29 03:59:06;;;;;;;18.34;10.52;;;;;;;9.95;44.67;99513.83;280864;124;2785116;-73
2021/04/29 04:00:13;;;;;;;18.96;11.41;;;;;;;9.99;44.69;99511.54;320939;124;1964286;-72
2021/04/29 04:01:18;;;;;;;17.17;11.18;;;;;;;10.03;44.63;99513.63;321352;124;1962053;-72
2021/04/29 04:02:25;;;;;;;20.06;11.83;;;;;;;10.08;44.52;99515.69;323722;125;1961907;-73
2021/04/29 04:03:31;;;;;;;21.69;10.64;;;;;;;10.12;44.53;99519.65;287739;124;2630783;-72
2021/04/29 04:04:37;;;;;;;22.72;12.94;;;;;;;10.17;44.45;99519.03;321107;124;1962026;-72
2021/04/29 04:05:43;;;;;;;18.22;11.41;;;;;;;10.21;44.37;99518.39;320910;126;1963062;-72
2021/04/29 04:06:48;;;;;;;17.79;10.79;;;;;;;10.25;44.27;99516.95;320411;126;1961844;-73
2021/04/29 04:07:53;;;;;;;25.86;12.03;;;;;;;10.27;44.28;99523.02;321698;126;1962024;-72
2021/04/29 04:09:00;;;;;;;27.05;13.38;;;;;;;10.30;44.29;99519.89;323020;124;1962005;-72
2021/04/29 04:10:07;;;;;;;18.47;11.82;;;;;;;10.33;44.20;99515.95;299083;124;2394761;-73
2021/04/29 04:11:12;;;;;;;22.66;12.97;;;;;;;10.37;44.06;99517.17;322000;123;1961994;-73
2021/04/29 04:12:18;;;;;;;19.71;13.38;;;;;;;10.38;44.05;99510.76;324711;124;1962024;-72
2021/04/29 04:13:34;;;;;;;22.34;13.24;;;;;;;10.42;43.98;99511.16;322442;126;1961941;-72
2021/04/29 04:14:39;;;;;;;22.08;11.82;;;;;;;10.44;43.92;99515.31;353939;115;1961994;-73
2021/04/29 04:15:47;;;;;;;20.49;12.47;;;;;;;10.47;43.93;99512.19;304103;115;2766981;-73
2021/04/29 04:16:52;;;;;;;16.44;10.23;;;;;;;10.51;44.02;99515.33;334972;118;1962872;-74
2021/04/29 04:17:57;;;;;;;19.13;10.14;;;;;;;10.55;43.86;99516.55;343257;116;1962045;-74
2021/04/29 04:19:03;;;;;;;16.94;9.71;;;;;;;10.60;43.84;99515.93;344543;118;1961974;-73
2021/04/29 04:20:10;;;;;;;15.76;9.28;;;;;;;10.66;43.77;99517.78;343679;116;1961738;-73
2021/04/29 04:21:15;;;;;;;17.48;9.56;;;;;;;10.72;43.64;99517.78;323405;116;2334882;-73
2021/04/29 04:22:21;;;;;;;15.79;9.42;;;;;;;10.80;43.60;99522.14;319348;118;1961923;-73
2021/04/29 04:23:26;;;;;;;19.06;9.13;;;;;;;10.36;43.47;99439.92;336415;118;1964985;-72
2021/04/29 04:24:31;;;;;;;15.18;9.16;;;;;;;10.95;43.46;99511.89;341180;118;1962971;-73
2021/04/29 04:25:37;;;;;;;18.05;8.94;;;;;;;11.06;43.31;99518.55;343213;116;1961935;-73
2021/04/29 04:26:43;;;;;;;14.28;8.75;;;;;;;11.18;43.17;99516.82;345376;116;1961943;-73
2021/04/29 04:27:49;;;;;;;12.59;7.47;;;;;;;11.33;42.95;99511.16;340578;117;1960871;-73
2021/04/29 04:28:55;;;;;;;13.02;8.13;;;;;;;11.45;42.75;99514.83;294240;118;2841898;-73
2021/04/29 04:30:01;;;;;;;12.66;7.72;;;;;;;11.57;42.63;99512.29;318907;118;1961976;-73
2021/04/29 04:31:06;;;;;;;12.06;7.94;;;;;;;11.71;42.46;99515.75;332232;117;1965427;-73
2021/04/29 04:32:12;;;;;;;12.96;7.82;;;;;;;11.81;42.29;99509.88;342615;116;1961950;-73
2021/04/29 04:33:18;;;;;;;13.73;7.32;;;;;;;11.88;42.03;99516.08;348098;116;1964076;-73
2021/04/29 04:34:23;;;;;;;18.46;7.54;;;;;;;11.93;41.74;99510.02;345044;116;1960866;-73
2021/04/29 04:35:29;;;;;;;14.04;6.96;;;;;;;11.99;41.79;99517.29;342511;116;1964030;-73
2021/04/29 04:36:36;;;;;;;18.07;12.49;;;;;;;12.05;41.65;99511.81;330213;118;1961799;-73
2021/04/29 04:37:42;;;;;;;15.68;8.99;;;;;;;12.13;41.56;99509.89;343356;116;1961933;-72
2021/04/29 04:38:47;;;;;;;13.29;8.13;;;;;;;12.16;41.53;99510.27;342882;118;1961816;-72
2021/04/29 04:39:56;;;;;;;13.75;7.78;;;;;;;12.24;41.42;99512.70;345503;118;1960908;-72
2021/04/29 04:41:01;;;;;;;11.16;7.44;;;;;;;12.30;41.19;99510.98;345743;116;1964917;-73
2021/04/29 04:42:07;;;;;;;12.46;7.54;;;;;;;12.37;41.11;99510.95;344846;118;1962034;-73
2021/04/29 04:43:12;;;;;;;16.02;7.63;;;;;;;12.42;40.88;99511.12;345263;118;1961932;-72
2021/04/29 04:44:17;;;;;;;11.39;7.44;;;;;;;12.48;40.84;99510.22;343697;116;1963008;-72
2021/04/29 04:45:23;;;;;;;12.52;7.76;;;;;;;12.54;40.75;99507.47;344323;118;1962998;-72
2021/04/29 04:46:31;;;;;;;14.01;7.37;;;;;;;12.58;40.64;99507.84;339944;113;2940056;-74
2021/04/29 04:47:37;;;;;;;13.42;7.46;;;;;;;12.63;40.32;99509.89;335141;113;1962066;-74
2021/04/29 04:48:43;;;;;;;11.38;7.28;;;;;;;12.69;40.40;99508.98;354661;113;1961989;-74
2021/04/29 04:49:50;;;;;;;14.43;7.17;;;;;;;12.70;40.22;99502.50;355416;113;1962036;-74
2021/04/29 04:50:56;;;;;;;14.26;7.04;;;;;;;12.81;40.15;99509.06;309233;113;2735025;-73
2021/04/29 04:52:01;;;;;;;11.66;7.16;;;;;;;12.87;39.99;99509.01;342052;110;1960861;-72
2021/04/29 04:53:07;;;;;;;11.18;6.63;;;;;;;12.91;39.91;99512.08;364510;110;1964086;-73
2021/04/29 04:54:12;;;;;;;11.57;6.43;;;;;;;12.94;39.78;99512.48;360054;111;1962986;-73
2021/04/29 04:55:17;;;;;;;15.37;6.57;;;;;;;13.01;39.70;99517.00;359428;111;1964315;-73
2021/04/29 04:56:23;;;;;;;13.92;6.82;;;;;;;13.03;39.60;99509.47;365113;108;1964937;-73
2021/04/29 04:57:28;;;;;;;12.21;6.40;;;;;;;13.02;39.55;99510.51;365679;110;1960918;-74
2021/04/29 04:58:36;;;;;;;10.77;6.22;;;;;;;13.05;39.55;99513.62;354998;108;2926991;-73
2021/04/29 04:59:42;;;;;;;12.43;7.29;;;;;;;13.09;39.47;99509.38;353297;111;1962808;-74
2021/04/29 05:00:58;;;;;;;10.21;6.67;;;;;;;13.12;39.40;99510.81;366469;108;1961901;-73
2021/04/29 05:02:05;;;;;;;10.91;6.85;;;;;;;13.17;39.37;99510.96;361428;112;1962061;-74
2021/04/29 05:03:11;;;;;;;10.13;6.42;;;;;;;13.23;39.31;99511.94;327089;110;2712852;-73
2021/04/29 05:04:18;;;;;;;13.87;7.71;;;;;;;13.25;39.15;99513.37;366090;110;1962029;-73
2021/04/29 05:05:23;;;;;;;13.56;6.74;;;;;;;13.27;39.09;99511.30;362539;112;1963936;-73
2021/04/29 05:06:30;;;;;;;14.50;7.14;;;;;;;13.30;39.07;99510.02;359034;111;1961849;-73
2021/04/29 05:07:37;;;;;;;13.28;6.94;;;;;;;13.33;39.04;99517.69;334360;110;2419013;-73